Time;durP1;ratioP1;P1;durP2;ratioP2;P2;SDS_P1;SDS_P2;PMS_P1;PMS_P2;Temp;Humidity;BMP_temperature;BMP_pressure;BME280_temperature;BME280_humidity;BME280_pressure;Samples;Min_cycle;Max_cycle;Signal;HPM_P1;HPM_P2
2022/08/02 00:01:28;;;;;;;7.72;3.15;;;;;;;21.58;44.92;99535.63;5150560;27;20023;-75
2022/08/02 00:03:53;;;;;;;5.85;3.13;;;;;;;21.60;44.94;99542.50;5150534;27;20042;-73
2022/08/02 00:06:19;;;;;;;5.07;2.55;;;;;;;21.60;44.84;99545.19;5151116;27;20019;-73
2022/08/02 00:08:44;;;;;;;7.13;2.80;;;;;;;21.63;44.64;99536.75;5149503;27;20058;-73
2022/08/02 00:11:10;;;;;;;6.25;2.72;;;;;;;21.66;44.68;99543.59;5150449;27;20034;-74
2022/08/02 00:13:35;;;;;;;4.88;2.55;;;;;;;21.67;44.72;99536.38;5149959;27;20049;-74
2022/08/02 00:16:01;;;;;;;5.72;3.05;;;;;;;21.77;44.35;99539.56;5150361;27;20023;-74
2022/08/02 00:18:27;;;;;;;7.13;2.55;;;;;;;21.83;43.95;99533.41;5141891;27;20034;-73
2022/08/02 00:20:52;;;;;;;7.45;2.47;;;;;;;21.88;43.67;99533.63;5150174;27;20019;-70
2022/08/02 00:23:18;;;;;;;5.43;2.40;;;;;;;21.91;43.94;99530.53;5150017;27;20015;-78
2022/08/02 00:25:43;;;;;;;4.47;2.60;;;;;;;21.94;43.75;99535.56;5132219;27;20031;-76
2022/08/02 00:28:10;;;;;;;8.60;2.97;;;;;;;22.01;43.67;99540.13;5149476;27;20020;-77
2022/08/02 00:30:36;;;;;;;8.13;4.18;;;;;;;22.03;43.51;99535.41;5150008;27;20046;-78
2022/08/02 00:33:01;;;;;;;6.22;2.90;;;;;;;22.03;43.49;99527.31;5149991;27;20041;-78
2022/08/02 00:35:27;;;;;;;7.80;2.50;;;;;;;22.03;43.34;99527.31;5149904;27;20019;-77
2022/08/02 00:37:53;;;;;;;5.78;2.15;;;;;;;22.00;43.46;99520.47;5147636;27;20044;-76
2022/08/02 00:40:22;;;;;;;8.77;2.53;;;;;;;21.95;43.24;99518.38;5149861;27;20023;-77
2022/08/02 00:43:09;;;;;;;6.18;2.72;;;;;;;21.91;43.50;99519.78;5149705;27;20027;-77
2022/08/02 00:45:37;;;;;;;5.65;2.50;;;;;;;21.89;43.57;99521.00;5149578;27;20027;-77
2022/08/02 00:48:05;;;;;;;6.53;2.42;;;;;;;21.83;43.77;99529.84;5139562;27;20041;-76
2022/08/02 00:50:32;;;;;;;6.70;2.33;;;;;;;21.82;43.78;99526.34;5149517;27;20305;-76
2022/08/02 00:52:58;;;;;;;8.52;3.20;;;;;;;21.83;43.82;99527.16;5149573;27;20086;-77
2022/08/02 00:55:24;;;;;;;4.13;2.70;;;;;;;21.80;43.97;99525.69;5147424;27;20037;-79
2022/08/02 00:57:50;;;;;;;5.80;2.60;;;;;;;21.80;43.91;99531.09;5144159;27;20043;-77
2022/08/02 01:00:16;;;;;;;6.72;2.72;;;;;;;21.75;44.01;99534.38;5149405;27;20088;-78
2022/08/02 01:02:41;;;;;;;5.80;2.35;;;;;;;21.64;44.29;99526.78;5150189;27;20139;-80
2022/08/02 01:05:07;;;;;;;6.47;2.60;;;;;;;21.58;44.27;99514.09;5149380;27;20034;-77
2022/08/02 01:07:33;;;;;;;6.15;2.60;;;;;;;21.57;44.35;99518.63;5143691;27;20047;-79
2022/08/02 01:10:01;;;;;;;5.78;2.50;;;;;;;21.56;44.41;99513.44;5149285;27;20047;-79
2022/08/02 01:12:27;;;;;;;6.68;2.58;;;;;;;21.54;44.56;99510.09;5131525;27;20227;-78
2022/08/02 01:14:55;;;;;;;4.70;2.70;;;;;;;21.52;44.52;99513.00;5150409;27;20030;-77
2022/08/02 01:17:39;;;;;;;4.50;2.88;;;;;;;21.50;44.71;99515.88;5147932;27;20025;-78
2022/08/02 01:20:04;;;;;;;4.95;2.95;;;;;;;21.48;44.66;99527.88;5149898;27;20033;-78
2022/08/02 01:22:55;;;;;;;4.55;2.22;;;;;;;21.41;44.91;99518.88;5149616;27;20026;-79
2022/08/02 01:25:33;;;;;;;6.72;2.97;;;;;;;21.35;45.15;99520.50;5148483;27;20019;-77
2022/08/02 01:28:07;;;;;;;5.28;2.67;;;;;;;21.33;45.10;99518.00;5130874;27;20019;-77
2022/08/02 01:30:34;;;;;;;7.35;2.35;;;;;;;21.33;45.10;99523.38;5132110;27;20022;-77
2022/08/02 01:33:01;;;;;;;4.03;2.42;;;;;;;21.32;45.28;99516.34;5149166;27;20060;-77
2022/08/02 01:35:38;;;;;;;3.92;2.38;;;;;;;21.30;45.37;99521.06;5148924;27;20023;-77
2022/08/02 01:38:35;;;;;;;2.95;1.80;;;;;;;21.27;45.35;99520.63;5147703;27;20011;-76
2022/08/02 01:41:04;;;;;;;4.75;2.42;;;;;;;21.18;45.48;99518.03;5132887;27;20285;-77
2022/08/02 01:43:32;;;;;;;4.88;2.10;;;;;;;21.23;45.61;99517.50;5148185;27;20072;-77
2022/08/02 01:46:00;;;;;;;6.93;2.70;;;;;;;21.25;45.60;99525.34;5146196;27;20033;-78
2022/08/02 01:48:28;;;;;;;6.38;2.28;;;;;;;21.23;45.60;99525.56;5148671;27;20063;-78
2022/08/02 01:50:56;;;;;;;6.88;2.50;;;;;;;21.21;45.78;99524.06;5148925;27;20068;-78
2022/08/02 01:53:24;;;;;;;10.48;2.70;;;;;;;21.20;45.61;99525.94;5148544;27;20125;-78
2022/08/02 01:55:52;;;;;;;5.30;1.95;;;;;;;21.19;45.68;99525.09;5143859;27;20042;-77
2022/08/02 01:58:21;;;;;;;4.18;2.60;;;;;;;21.19;45.90;99532.34;5145333;27;20228;-77
2022/08/02 02:00:48;;;;;;;6.00;2.58;;;;;;;21.15;45.89;99533.75;5148518;27;20035;-77
2022/08/02 02:03:19;;;;;;;5.72;2.55;;;;;;;21.16;45.99;99538.09;5148460;27;20027;-78
2022/08/02 02:05:50;;;;;;;4.50;2.67;;;;;;;21.15;46.27;99539.97;5142831;27;20035;-77
2022/08/02 02:08:35;;;;;;;6.13;2.38;;;;;;;21.14;45.93;99542.81;5148054;27;20510;-77
2022/08/02 02:11:02;;;;;;;6.47;2.78;;;;;;;21.12;45.98;99534.13;5148307;28;20131;-76
2022/08/02 02:13:28;;;;;;;6.85;2.55;;;;;;;21.13;45.83;99530.41;5148125;28;20019;-78
2022/08/02 02:15:55;;;;;;;2.30;1.70;;;;;;;21.11;46.12;99530.59;5140451;28;20128;-76
2022/08/02 02:18:24;;;;;;;7.80;2.33;;;;;;;21.14;46.23;99542.81;5129027;28;20247;-77
2022/08/02 02:20:51;;;;;;;2.55;1.90;;;;;;;21.10;46.37;99542.38;5128071;28;20027;-76
2022/08/02 02:23:17;;;;;;;4.78;2.42;;;;;;;21.10;46.26;99539.69;5140424;28;20034;-76
2022/08/02 02:25:43;;;;;;;4.85;1.92;;;;;;;21.15;46.07;99545.34;5148217;28;20027;-76
2022/08/02 02:28:13;;;;;;;5.32;2.08;;;;;;;21.15;46.16;99542.66;5131014;28;20195;-75
2022/08/02 02:30:42;;;;;;;5.78;2.72;;;;;;;21.12;46.63;99536.81;5146104;27;20220;-75
2022/08/02 02:33:10;;;;;;;4.85;2.63;;;;;;;21.16;46.35;99538.09;5147954;28;20112;-76
2022/08/02 02:35:37;;;;;;;7.95;2.20;;;;;;;21.15;46.42;99542.66;5148026;28;20030;-75
2022/08/02 02:38:05;;;;;;;5.57;3.00;;;;;;;21.17;46.47;99537.06;5147469;28;20064;-75
2022/08/02 02:40:32;;;;;;;10.70;2.90;;;;;;;21.18;46.49;99530.66;5142411;28;20183;-74
2022/08/02 02:43:00;;;;;;;5.80;3.08;;;;;;;21.23;46.33;99536.31;5147621;28;20243;-77
2022/08/02 02:45:27;;;;;;;5.60;3.03;;;;;;;21.24;46.40;99539.84;5147990;28;20031;-76
2022/08/02 02:47:54;;;;;;;4.85;2.90;;;;;;;21.24;46.45;99539.84;5146949;28;20147;-75
2022/08/02 02:50:21;;;;;;;7.57;2.65;;;;;;;21.24;46.56;99540.69;5132315;27;20086;-76
2022/08/02 02:52:48;;;;;;;6.90;3.20;;;;;;;21.24;46.48;99538.00;5150213;27;20022;-76
2022/08/02 02:55:14;;;;;;;5.68;2.92;;;;;;;21.25;46.59;99536.94;5151970;27;20277;-76
2022/08/02 02:57:41;;;;;;;6.15;2.83;;;;;;;21.27;46.53;99534.09;5151032;27;20053;-76
2022/08/02 03:00:10;;;;;;;9.80;2.72;;;;;;;21.24;46.58;99538.00;5150157;27;20046;-76
2022/08/02 03:02:38;;;;;;;7.47;3.40;;;;;;;21.23;46.83;99532.78;5151529;27;20023;-78
2022/08/02 03:05:06;;;;;;;4.82;2.38;;;;;;;21.23;46.78;99527.41;5151722;27;20255;-77
2022/08/02 03:07:33;;;;;;;8.50;2.65;;;;;;;21.23;46.85;99528.25;5150505;27;20190;-77
2022/08/02 03:09:59;;;;;;;6.47;2.97;;;;;;;21.29;46.55;99527.47;5147754;27;20023;-77
2022/08/02 03:12:26;;;;;;;5.95;2.60;;;;;;;21.33;46.45;99536.84;5151377;27;20292;-78
2022/08/02 03:14:52;;;;;;;10.32;2.88;;;;;;;21.32;46.78;99531.66;5151414;27;20022;-78
2022/08/02 03:17:17;;;;;;;7.75;3.15;;;;;;;21.38;46.63;99538.13;5132870;27;20090;-77
2022/08/02 03:19:44;;;;;;;6.25;2.55;;;;;;;21.45;46.47;99536.31;5148848;27;20224;-79
2022/08/02 03:22:10;;;;;;;4.50;2.55;;;;;;;21.53;46.21;99538.91;5151208;27;20064;-77
2022/08/02 03:24:36;;;;;;;5.72;2.80;;;;;;;21.58;46.14;99539.13;5151670;27;20039;-77
2022/08/02 03:27:01;;;;;;;8.20;3.03;;;;;;;21.69;45.95;99537.00;5133241;27;20023;-76
2022/08/02 03:29:26;;;;;;;4.20;2.50;;;;;;;21.79;45.91;99540.19;5143877;27;20037;-76
2022/08/02 03:31:52;;;;;;;8.32;3.17;;;;;;;21.86;45.65;99534.84;5151038;27;20029;-76
2022/08/02 03:34:19;;;;;;;5.18;2.50;;;;;;;21.90;45.67;99547.72;5150613;27;20034;-76
2022/08/02 03:36:50;;;;;;;8.25;2.70;;;;;;;21.97;45.52;99536.19;5134680;27;20011;-76
2022/08/02 03:39:16;;;;;;;;;;;;;;;21.94;45.46;99540.94;5151053;27;20327;-76
2022/08/02 03:41:42;;;;;;;5.75;2.80;;;;;;;22.03;45.31;99538.09;5150977;27;20124;-76
2022/08/02 03:44:08;;;;;;;6.97;2.90;;;;;;;22.09;45.25;99537.31;5151383;27;20027;-77
2022/08/02 03:46:38;;;;;;;9.18;2.70;;;;;;;22.14;45.39;99531.34;5150968;27;20038;-76
2022/08/02 03:49:05;;;;;;;4.72;2.60;;;;;;;22.17;45.25;99533.63;5136045;27;20027;-76
2022/08/02 03:51:31;;;;;;;8.10;2.83;;;;;;;22.18;45.19;99538.00;5150931;27;20026;-76
2022/08/02 03:53:56;;;;;;;10.05;3.10;;;;;;;22.18;45.37;99538.00;5133053;27;20248;-76
2022/08/02 03:56:23;;;;;;;5.05;2.42;;;;;;;22.19;45.30;99542.38;5151010;27;20163;-76
2022/08/02 03:58:48;;;;;;;5.65;2.65;;;;;;;22.21;45.54;99545.66;5149021;27;20007;-76
2022/08/02 04:01:13;;;;;;;7.32;3.10;;;;;;;22.19;45.29;99539.66;5151560;27;20019;-78
2022/08/02 04:03:39;;;;;;;9.27;2.00;;;;;;;22.15;45.72;99538.38;5150218;27;20027;-78
2022/08/02 04:06:05;;;;;;;4.68;2.50;;;;;;;22.16;45.75;99542.75;5150585;27;20307;-78
2022/08/02 04:08:32;;;;;;;7.55;2.40;;;;;;;22.17;45.63;99547.13;5142841;27;20045;-78
2022/08/02 04:13:42;;;;;;;5.25;2.60;;;;;;;22.18;45.91;99546.09;5150395;27;20022;-78
2022/08/02 04:16:40;;;;;;;4.03;2.42;;;;;;;22.21;45.76;99540.28;5150600;27;20019;-79
2022/08/02 04:19:09;;;;;;;7.13;2.33;;;;;;;22.21;45.71;99545.66;5141363;27;20094;-76
2022/08/02 04:21:37;;;;;;;6.55;2.05;;;;;;;22.23;45.46;99544.47;5150297;27;20090;-76
2022/08/02 04:24:06;;;;;;;5.35;2.38;;;;;;;22.29;45.64;99550.06;5150058;27;20030;-77
2022/08/02 04:26:35;;;;;;;6.78;2.30;;;;;;;22.32;45.52;99541.59;5147912;27;20023;-76
2022/08/02 04:29:01;;;;;;;6.90;2.15;;;;;;;22.36;45.43;99549.09;5152269;27;20075;-77
2022/08/02 04:31:27;;;;;;;4.20;1.92;;;;;;;22.41;45.37;99543.13;5151929;27;20287;-78
2022/08/02 04:33:53;;;;;;;6.45;1.80;;;;;;;22.43;45.20;99545.66;5149861;27;20023;-76
2022/08/02 04:36:19;;;;;;;4.90;2.20;;;;;;;22.49;44.74;99542.97;5148743;27;20041;-75
2022/08/02 04:38:44;;;;;;;3.88;2.05;;;;;;;22.55;44.79;99541.34;5156524;27;20027;-76
2022/08/02 04:41:10;;;;;;;6.40;3.35;;;;;;;22.58;44.83;99542.81;5154059;27;20034;-76
2022/08/02 04:43:35;;;;;;;5.40;2.40;;;;;;;22.61;44.68;99537.88;5150687;27;20042;-75
2022/08/02 04:46:02;;;;;;;4.50;2.60;;;;;;;22.66;44.43;99540.78;5141205;27;20191;-77
2022/08/02 04:48:28;;;;;;;10.38;2.15;;;;;;;22.74;44.37;99536.25;5149211;27;20031;-77
2022/08/02 04:50:53;;;;;;;4.47;1.83;;;;;;;22.79;44.40;99544.59;5149728;27;20030;-77
2022/08/02 04:53:19;;;;;;;6.75;2.38;;;;;;;22.92;44.13;99552.75;5149457;27;20086;-77
2022/08/02 04:55:46;;;;;;;8.48;2.30;;;;;;;22.96;44.10;99550.47;5150019;27;20056;-77
2022/08/02 04:58:12;;;;;;;6.50;2.25;;;;;;;23.00;44.06;99554.44;5147866;27;20034;-77
2022/08/02 05:00:37;;;;;;;6.82;2.45;;;;;;;23.25;43.40;99543.09;5149213;27;20027;-78
2022/08/02 05:03:03;;;;;;;5.63;2.25;;;;;;;23.52;43.00;99552.09;5134079;27;20156;-78
2022/08/02 05:05:28;;;;;;;4.75;2.20;;;;;;;23.81;42.61;99547.34;5149632;27;20021;-78
2022/08/02 05:07:54;;;;;;;2.20;1.55;;;;;;;23.87;42.49;99543.78;5147068;27;20038;-78
2022/08/02 05:10:20;;;;;;;5.40;2.70;;;;;;;23.84;42.75;99538.81;5149451;27;20045;-78
2022/08/02 05:12:46;;;;;;;4.75;2.22;;;;;;;23.99;42.42;99548.59;5148177;27;20140;-77
2022/08/02 05:15:15;;;;;;;7.43;2.65;;;;;;;24.02;42.50;99540.94;5148982;27;20031;-77
2022/08/02 05:17:41;;;;;;;5.28;2.10;;;;;;;23.97;42.32;99537.19;5136319;27;20040;-76
2022/08/02 05:20:07;;;;;;;7.80;3.40;;;;;;;23.98;42.11;99539.66;5134831;27;20055;-76
2022/08/02 05:22:32;;;;;;;5.95;2.17;;;;;;;24.12;42.25;99539.66;5148966;27;20030;-78
2022/08/02 05:24:58;;;;;;;7.22;2.25;;;;;;;24.01;42.15;99543.81;5149151;27;20248;-77
2022/08/02 05:27:23;;;;;;;5.35;2.20;;;;;;;23.92;42.54;99545.88;5132497;27;20140;-78
2022/08/02 05:29:50;;;;;;;3.65;1.90;;;;;;;24.11;42.21;99538.00;5131827;27;20140;-77
2022/08/02 05:32:16;;;;;;;7.18;2.53;;;;;;;24.32;41.82;99535.06;5154912;27;20022;-77
2022/08/02 05:34:42;;;;;;;3.28;2.03;;;;;;;24.51;40.99;99530.63;5148962;27;20023;-76
2022/08/02 05:37:07;;;;;;;4.60;2.15;;;;;;;24.73;40.67;99538.47;5145443;27;20015;-76
2022/08/02 05:39:33;;;;;;;3.55;1.80;;;;;;;24.87;40.47;99533.88;5148078;27;20029;-77
2022/08/02 05:41:59;;;;;;;5.30;2.28;;;;;;;24.88;40.72;99531.97;5148433;27;20061;-77
2022/08/02 05:44:24;;;;;;;3.22;2.38;;;;;;;24.93;40.21;99534.88;5148887;27;20254;-77
2022/08/02 05:46:49;;;;;;;5.47;2.10;;;;;;;24.96;40.32;99523.63;5147626;27;20023;-77
2022/08/02 05:49:15;;;;;;;6.57;2.10;;;;;;;24.93;40.30;99535.69;5149431;27;20023;-77
2022/08/02 05:52:06;;;;;;;5.28;2.05;;;;;;;24.72;40.61;99533.28;5148779;27;20094;-78
2022/08/02 05:54:38;;;;;;;4.47;2.35;;;;;;;24.77;40.44;99526.19;5148616;27;20043;-78
2022/08/02 05:57:22;;;;;;;7.38;2.75;;;;;;;24.64;40.78;99523.50;5146734;27;20030;-77
2022/08/02 06:00:10;;;;;;;8.73;2.00;;;;;;;24.53;40.84;99525.00;5148927;27;20144;-78
2022/08/02 06:02:41;;;;;;;4.90;1.73;;;;;;;24.44;41.18;99520.88;5148355;27;20046;-78
2022/08/02 06:05:11;;;;;;;7.82;2.15;;;;;;;24.37;41.12;99521.72;5145703;27;20148;-78
2022/08/02 06:07:39;;;;;;;2.97;1.85;;;;;;;24.44;41.03;99524.41;5147579;27;20035;-78
2022/08/02 06:10:06;;;;;;;6.22;2.10;;;;;;;24.68;40.66;99522.06;5149445;27;20031;-76
2022/08/02 06:12:34;;;;;;;6.20;2.15;;;;;;;24.82;40.44;99518.28;5163636;27;20072;-75
2022/08/02 06:15:02;;;;;;;6.85;1.90;;;;;;;24.88;40.54;99521.16;5143646;28;20147;-76
2022/08/02 06:17:29;;;;;;;6.43;2.80;;;;;;;24.79;40.48;99528.69;5148180;28;20095;-77
2022/08/02 06:19:58;;;;;;;15.18;2.33;;;;;;;24.68;40.91;99528.28;5136619;28;20039;-78
2022/08/02 06:22:29;;;;;;;7.15;2.22;;;;;;;24.60;40.99;99525.81;5148197;28;20132;-77
2022/08/02 06:24:57;;;;;;;5.75;2.40;;;;;;;24.53;41.37;99519.59;5151406;27;20030;-77
2022/08/02 19:58:02;;;;;;;9.20;5.55;;;;;;;23.45;45.45;99448.63;5174609;27;20215;-72
2022/08/02 20:00:28;;;;;;;9.65;5.07;;;;;;;23.40;45.73;99443.88;5145969;27;20049;-71
2022/08/02 20:02:53;;;;;;;11.02;4.93;;;;;;;23.32;45.94;99438.66;5137766;27;20031;-71
2022/08/02 20:05:19;;;;;;;12.32;4.55;;;;;;;23.25;46.46;99449.44;5151357;27;20074;-71
2022/08/02 20:07:46;;;;;;;12.85;4.88;;;;;;;23.22;46.66;99443.63;5137614;27;20401;-71
2022/08/02 20:10:13;;;;;;;8.65;4.50;;;;;;;23.20;46.42;99441.16;5140599;27;20056;-72
2022/08/02 20:12:39;;;;;;;6.75;4.10;;;;;;;23.19;46.58;99438.63;5151732;27;20050;-71
2022/08/02 20:15:06;;;;;;;11.23;5.15;;;;;;;23.19;46.38;99441.31;5151086;27;20037;-72
2022/08/02 20:17:32;;;;;;;8.35;4.53;;;;;;;23.17;46.55;99442.34;5145983;27;20039;-72
2022/08/02 20:19:58;;;;;;;18.02;4.68;;;;;;;23.12;46.74;99444.84;5133021;27;20031;-72
2022/08/02 20:22:23;;;;;;;9.52;4.47;;;;;;;23.08;46.80;99449.00;5146438;27;20030;-72
2022/08/02 20:24:49;;;;;;;9.25;4.68;;;;;;;23.08;46.82;99443.59;5150701;27;20037;-73
2022/08/02 20:27:15;;;;;;;7.30;4.05;;;;;;;23.07;46.55;99447.31;5117364;28;20031;-72
2022/08/02 20:29:41;;;;;;;5.70;3.95;;;;;;;23.07;46.70;99451.91;5130493;27;20424;-71
2022/08/02 20:32:07;;;;;;;13.55;3.90;;;;;;;23.06;46.57;99456.47;5130075;27;20031;-73
2022/08/02 20:34:32;;;;;;;9.68;4.50;;;;;;;23.04;47.13;99460.41;5130566;28;20084;-72
2022/08/02 20:36:58;;;;;;;10.50;4.80;;;;;;;23.02;46.77;99452.50;5140923;27;20030;-73
2022/08/02 20:39:23;;;;;;;12.63;5.90;;;;;;;22.99;47.07;99450.22;5151173;27;20423;-72
2022/08/02 20:41:49;;;;;;;9.43;5.10;;;;;;;22.95;47.35;99449.78;5143485;27;20080;-72
2022/08/02 20:44:15;;;;;;;14.15;4.55;;;;;;;22.94;47.33;99448.13;5129903;27;20410;-73
2022/08/02 20:46:42;;;;;;;10.38;5.07;;;;;;;22.93;47.46;99442.94;5137732;27;20572;-69
2022/08/02 20:49:07;;;;;;;9.85;5.03;;;;;;;22.91;47.95;99448.56;5130581;27;20035;-73
2022/08/02 20:51:33;;;;;;;17.83;5.32;;;;;;;22.90;47.90;99448.75;5142414;27;20027;-74
2022/08/02 20:53:58;;;;;;;14.95;5.32;;;;;;;22.85;48.07;99443.97;5134865;27;20082;-73
2022/08/02 20:56:24;;;;;;;9.48;4.93;;;;;;;22.86;48.13;99448.31;5114623;27;20168;-74
2022/08/02 20:58:50;;;;;;;10.13;5.18;;;;;;;22.83;48.24;99449.56;5130098;28;20473;-72
2022/08/02 21:01:15;;;;;;;11.07;5.07;;;;;;;22.81;48.09;99450.78;5137163;27;20030;-72
2022/08/02 21:03:41;;;;;;;17.77;5.75;;;;;;;22.80;47.89;99444.56;5132934;27;20074;-73
2022/08/02 21:06:10;;;;;;;18.73;5.72;;;;;;;22.76;48.02;99446.00;5132604;27;20027;-72
2022/08/02 21:08:37;;;;;;;16.67;6.60;;;;;;;22.77;48.06;99442.28;5132426;27;20061;-74
2022/08/02 21:11:03;;;;;;;12.05;5.28;;;;;;;22.77;48.27;99453.06;5121559;27;20039;-72
2022/08/02 21:13:29;;;;;;;8.68;5.28;;;;;;;22.75;48.19;99452.44;5128363;27;20027;-73
2022/08/02 21:15:54;;;;;;;13.25;5.25;;;;;;;22.73;47.99;99450.97;5124265;27;20046;-76
2022/08/02 21:18:23;;;;;;;12.80;5.80;;;;;;;22.74;48.38;99449.94;5117968;27;20040;-74
2022/08/02 21:20:48;;;;;;;13.43;5.85;;;;;;;22.70;48.23;99452.22;5117686;27;20031;-73
2022/08/02 21:23:14;;;;;;;12.70;5.38;;;;;;;22.73;47.98;99450.97;5124242;27;20045;-71
2022/08/02 21:25:40;;;;;;;12.80;4.82;;;;;;;22.70;48.45;99453.06;5124892;27;20084;-74
2022/08/02 21:28:05;;;;;;;14.80;5.97;;;;;;;22.69;48.35;99455.97;5134613;27;20050;-73
2022/08/02 21:30:31;;;;;;;8.95;4.80;;;;;;;22.70;48.38;99452.22;5118247;27;20134;-76
2022/08/02 21:32:56;;;;;;;11.73;6.00;;;;;;;22.70;48.32;99457.63;5126929;27;20039;-73
2022/08/02 21:35:23;;;;;;;12.30;5.25;;;;;;;22.73;48.34;99453.69;5129084;27;20490;-71
2022/08/02 21:37:50;;;;;;;14.10;4.95;;;;;;;22.73;48.20;99450.97;5121247;27;20172;-71
2022/08/02 21:40:16;;;;;;;17.38;4.53;;;;;;;22.71;48.29;99448.50;5116083;27;20538;-74
2022/08/02 21:42:42;;;;;;;23.77;7.60;;;;;;;22.71;48.32;99453.91;5120023;27;20406;-73
2022/08/02 21:45:08;;;;;;;11.15;5.63;;;;;;;22.69;48.10;99445.19;5118099;27;20031;-70
2022/08/02 21:47:33;;;;;;;11.75;5.65;;;;;;;22.65;48.24;99444.72;5116194;27;21714;-74
2022/08/02 21:49:59;;;;;;;18.25;6.20;;;;;;;22.64;48.26;99453.88;5116569;27;20036;-73
2022/08/02 21:52:26;;;;;;;15.45;5.78;;;;;;;22.64;48.36;99459.28;5115570;27;20051;-71
2022/08/02 21:54:55;;;;;;;19.42;6.15;;;;;;;22.64;48.46;99463.81;5121897;27;20057;-70
2022/08/02 21:57:22;;;;;;;15.18;5.53;;;;;;;22.63;48.53;99460.31;5114854;27;20074;-70
2022/08/02 21:59:49;;;;;;;20.17;6.68;;;;;;;22.62;48.44;99465.88;5116109;27;20042;-72
2022/08/02 22:02:21;;;;;;;19.35;6.25;;;;;;;22.63;48.31;99456.75;5115790;27;20096;-73
2022/08/02 22:04:49;;;;;;;19.67;5.45;;;;;;;22.64;48.22;99461.13;5116669;27;20121;-74
2022/08/02 22:07:17;;;;;;;19.10;5.75;;;;;;;22.63;48.30;99460.31;5119207;27;20043;-76
2022/08/02 22:09:43;;;;;;;15.05;5.40;;;;;;;22.62;48.25;99457.78;5123314;27;20035;-72
2022/08/02 22:12:09;;;;;;;16.20;5.80;;;;;;;22.63;48.33;99456.75;5134621;27;20049;-73
2022/08/02 22:14:35;;;;;;;13.27;5.68;;;;;;;22.60;48.31;99463.41;5151849;27;20419;-71
2022/08/02 22:17:01;;;;;;;17.48;6.95;;;;;;;22.61;48.58;99464.22;5135061;27;20039;-73
2022/08/02 22:19:26;;;;;;;18.20;6.35;;;;;;;22.60;48.37;99462.53;5120791;27;20100;-72
2022/08/02 22:21:51;;;;;;;14.57;6.10;;;;;;;22.61;48.45;99469.59;5122420;27;20039;-72
2022/08/02 22:24:17;;;;;;;9.10;6.65;;;;;;;22.60;48.33;99470.63;5117452;27;20082;-74
2022/08/02 22:26:45;;;;;;;15.40;6.53;;;;;;;22.60;48.47;99473.34;5146155;27;20042;-73
2022/08/02 22:29:11;;;;;;;20.98;6.18;;;;;;;22.60;48.33;99467.94;5155526;27;20030;-71
2022/08/02 22:31:38;;;;;;;12.52;6.70;;;;;;;22.60;48.13;99466.09;5143769;27;20039;-72
2022/08/02 22:34:04;;;;;;;15.38;6.40;;;;;;;22.57;48.34;99474.56;5129013;27;20035;-74
2022/08/02 22:36:39;;;;;;;15.32;6.13;;;;;;;22.54;48.55;99475.81;5141653;27;20111;-75
2022/08/02 22:39:06;;;;;;;23.05;6.53;;;;;;;22.49;48.53;99480.97;5135238;27;20490;-74
2022/08/02 22:41:32;;;;;;;18.83;7.03;;;;;;;22.48;48.59;99479.31;5120031;27;20032;-75
2022/08/02 22:43:59;;;;;;;13.02;6.25;;;;;;;22.46;48.65;99481.38;5116630;27;20027;-75
2022/08/02 22:46:24;;;;;;;16.35;6.97;;;;;;;22.46;48.62;99478.66;5135972;27;20037;-75
2022/08/02 22:48:50;;;;;;;15.18;7.05;;;;;;;22.48;48.44;99476.59;5148940;27;20023;-74
2022/08/02 22:51:16;;;;;;;11.18;6.28;;;;;;;22.48;48.53;99468.53;5127603;27;20071;-74
2022/08/02 22:53:43;;;;;;;11.90;5.93;;;;;;;22.48;48.51;99471.22;5124586;27;20189;-75
2022/08/02 22:56:09;;;;;;;15.95;5.70;;;;;;;22.49;48.52;99469.38;5126956;27;20070;-77
2022/08/02 22:58:35;;;;;;;13.75;5.45;;;;;;;22.51;48.42;99480.75;5104785;27;20501;-72
2022/08/02 23:01:01;;;;;;;20.38;8.23;;;;;;;22.51;48.57;99470.81;5130361;27;20468;-76
2022/08/02 23:03:27;;;;;;;16.67;7.43;;;;;;;22.51;48.34;99476.22;5119053;27;20047;-73
2022/08/02 23:05:53;;;;;;;11.32;5.60;;;;;;;22.48;48.68;99475.78;5117571;27;20059;-73
2022/08/02 23:08:18;;;;;;;12.40;6.85;;;;;;;22.42;48.81;99471.19;5131216;27;20031;-73
2022/08/02 23:10:44;;;;;;;13.18;5.55;;;;;;;22.37;48.86;99477.16;5115693;27;20035;-74
2022/08/02 23:13:09;;;;;;;12.63;5.90;;;;;;;22.35;48.96;99477.34;5113776;28;20104;-75
2022/08/02 23:21:06;;;;;;;17.13;5.70;;;;;;;22.23;48.95;99478.94;5134344;27;20038;-73
2022/08/02 23:23:31;;;;;;;15.23;5.50;;;;;;;22.21;48.96;99487.22;5134263;27;20043;-74
2022/08/02 23:25:57;;;;;;;12.23;5.43;;;;;;;22.19;49.09;99489.28;5131131;27;20042;-73
2022/08/02 23:28:22;;;;;;;8.10;5.50;;;;;;;22.17;49.31;99491.34;5120950;27;20054;-73
2022/08/02 23:30:48;;;;;;;12.07;6.15;;;;;;;22.15;49.25;99492.56;5113848;27;20067;-73
2022/08/02 23:33:13;;;;;;;12.77;5.75;;;;;;;22.12;49.34;99491.13;5113659;27;20481;-74
2022/08/02 23:35:39;;;;;;;13.23;5.10;;;;;;;22.09;49.49;99494.19;5114099;27;20030;-72
2022/08/02 23:38:04;;;;;;;11.27;5.68;;;;;;;22.05;49.43;99495.63;5119557;27;20035;-73
2022/08/02 23:40:30;;;;;;;14.07;5.75;;;;;;;22.02;49.79;99491.47;5127654;27;20031;-72
2022/08/02 23:42:56;;;;;;;12.38;6.13;;;;;;;22.01;49.63;99495.19;5113450;27;20050;-73
2022/08/02 23:45:22;;;;;;;8.43;6.07;;;;;;;22.00;49.67;99507.00;5113284;28;20397;-73
2022/08/02 23:47:47;;;;;;;13.43;6.28;;;;;;;21.95;49.82;99499.50;5118155;28;20042;-73
2022/08/02 23:50:13;;;;;;;14.05;5.60;;;;;;;21.96;49.68;99505.72;5115217;27;20035;-71
2022/08/02 23:52:38;;;;;;;11.05;5.55;;;;;;;21.94;50.23;99500.53;5112286;27;20069;-74
2022/08/02 23:55:04;;;;;;;16.30;7.30;;;;;;;21.93;51.07;99506.94;5114564;27;20035;-75
2022/08/02 23:57:30;;;;;;;10.15;5.57;;;;;;;21.93;51.31;99506.94;5117122;28;20066;-75
2022/08/02 23:59:55;;;;;;;15.80;6.10;;;;;;;21.92;51.62;99513.38;5123544;28;20035;-72
